sensor_id;sensor_type;location;lat;lon;timestamp;temperature;humidity
32400;DHT22;45045;45.440;9.178;2022-09-09T00:09:45;27.10;92.10
32400;DHT22;45045;45.440;9.178;2022-09-09T00:14:59;27.10;92.30
32400;DHT22;45045;45.440;9.178;2022-09-09T00:17:39;27.20;92.30
32400;DHT22;45045;45.440;9.178;2022-09-09T00:20:12;27.20;92.10
32400;DHT22;45045;45.440;9.178;2022-09-09T00:22:47;27.30;91.80
32400;DHT22;45045;45.440;9.178;2022-09-09T00:25:31;27.40;91.70
32400;DHT22;45045;45.440;9.178;2022-09-09T00:28:00;27.20;92.10
32400;DHT22;45045;45.440;9.178;2022-09-09T00:30:28;27.00;92.70
32400;DHT22;45045;45.440;9.178;2022-09-09T00:33:01;27.10;92.70
32400;DHT22;45045;45.440;9.178;2022-09-09T00:35:35;27.10;92.80
32400;DHT22;45045;45.440;9.178;2022-09-09T00:38:18;27.10;92.90
32400;DHT22;45045;45.440;9.178;2022-09-09T00:43:33;26.90;93.40
32400;DHT22;45045;45.440;9.178;2022-09-09T00:57:28;26.60;94.50
32400;DHT22;45045;45.440;9.178;2022-09-09T01:11:09;26.50;95.00
32400;DHT22;45045;45.440;9.178;2022-09-09T01:13:36;26.70;94.60
32400;DHT22;45045;45.440;9.178;2022-09-09T01:16:08;26.60;94.70
32400;DHT22;45045;45.440;9.178;2022-09-09T01:18:44;26.40;94.90
32400;DHT22;45045;45.440;9.178;2022-09-09T01:24:15;25.80;96.90
32400;DHT22;45045;45.440;9.178;2022-09-09T01:26:46;25.80;97.00
32400;DHT22;45045;45.440;9.178;2022-09-09T01:29:17;25.40;97.80
32400;DHT22;45045;45.440;9.178;2022-09-09T01:34:22;25.40;98.50
32400;DHT22;45045;45.440;9.178;2022-09-09T01:39:26;25.60;98.10
32400;DHT22;45045;45.440;9.178;2022-09-09T01:41:53;25.40;98.60
32400;DHT22;45045;45.440;9.178;2022-09-09T01:44:19;25.60;98.10
32400;DHT22;45045;45.440;9.178;2022-09-09T01:46:46;25.60;98.40
32400;DHT22;45045;45.440;9.178;2022-09-09T01:49:11;25.60;98.00
32400;DHT22;45045;45.440;9.178;2022-09-09T01:51:39;25.60;98.50
32400;DHT22;45045;45.440;9.178;2022-09-09T01:54:06;25.60;98.20
32400;DHT22;45045;45.440;9.178;2022-09-09T02:02:17;25.80;97.70
32400;DHT22;45045;45.440;9.178;2022-09-09T02:04:44;26.00;97.50
32400;DHT22;45045;45.440;9.178;2022-09-09T02:07:31;25.80;97.30
32400;DHT22;45045;45.440;9.178;2022-09-09T02:10:21;25.70;97.80
32400;DHT22;45045;45.440;9.178;2022-09-09T02:12:51;25.60;98.10
32400;DHT22;45045;45.440;9.178;2022-09-09T02:17:58;25.70;98.10
32400;DHT22;45045;45.440;9.178;2022-09-09T02:20:28;25.80;98.20
32400;DHT22;45045;45.440;9.178;2022-09-09T02:22:58;25.70;97.60
32400;DHT22;45045;45.440;9.178;2022-09-09T02:25:26;25.60;98.10
32400;DHT22;45045;45.440;9.178;2022-09-09T02:27:53;25.30;98.60
32400;DHT22;45045;45.440;9.178;2022-09-09T02:30:20;25.10;99.60
32400;DHT22;45045;45.440;9.178;2022-09-09T02:32:47;24.90;99.90
32400;DHT22;45045;45.440;9.178;2022-09-09T02:35:16;24.90;99.90
32400;DHT22;45045;45.440;9.178;2022-09-09T02:37:44;24.90;99.90
32400;DHT22;45045;45.440;9.178;2022-09-09T02:40:14;24.90;99.90
32400;DHT22;45045;45.440;9.178;2022-09-09T02:42:45;24.80;99.90
32400;DHT22;45045;45.440;9.178;2022-09-09T02:45:14;24.80;99.90
32400;DHT22;45045;45.440;9.178;2022-09-09T02:50:58;24.70;99.90
32400;DHT22;45045;45.440;9.178;2022-09-09T02:56:15;24.60;99.90
32400;DHT22;45045;45.440;9.178;2022-09-09T02:58:41;24.50;99.90
32400;DHT22;45045;45.440;9.178;2022-09-09T03:01:07;24.70;99.90
32400;DHT22;45045;45.440;9.178;2022-09-09T03:03:34;24.60;99.90
32400;DHT22;45045;45.440;9.178;2022-09-09T03:06:00;24.60;99.90
32400;DHT22;45045;45.440;9.178;2022-09-09T03:08:26;24.40;99.90
32400;DHT22;45045;45.440;9.178;2022-09-09T03:10:54;24.40;99.90
32400;DHT22;45045;45.440;9.178;2022-09-09T03:13:19;24.30;99.90
32400;DHT22;45045;45.440;9.178;2022-09-09T03:15:45;24.40;99.90
32400;DHT22;45045;45.440;9.178;2022-09-09T03:18:10;24.40;99.90
32400;DHT22;45045;45.440;9.178;2022-09-09T03:20:36;24.40;99.90
32400;DHT22;45045;45.440;9.178;2022-09-09T03:23:02;24.40;99.90
32400;DHT22;45045;45.440;9.178;2022-09-09T03:25:28;24.50;99.90
32400;DHT22;45045;45.440;9.178;2022-09-09T03:27:56;24.60;99.90
32400;DHT22;45045;45.440;9.178;2022-09-09T03:30:26;24.70;99.90
32400;DHT22;45045;45.440;9.178;2022-09-09T03:32:52;24.70;99.90
32400;DHT22;45045;45.440;9.178;2022-09-09T03:35:18;24.50;99.90
32400;DHT22;45045;45.440;9.178;2022-09-09T03:37:44;24.50;99.90
32400;DHT22;45045;45.440;9.178;2022-09-09T03:40:11;24.70;99.90
32400;DHT22;45045;45.440;9.178;2022-09-09T03:42:38;24.60;99.90
32400;DHT22;45045;45.440;9.178;2022-09-09T03:45:08;24.60;99.90
32400;DHT22;45045;45.440;9.178;2022-09-09T03:47:36;24.50;99.90
32400;DHT22;45045;45.440;9.178;2022-09-09T03:50:02;24.40;99.90
32400;DHT22;45045;45.440;9.178;2022-09-09T03:52:29;24.50;99.90
32400;DHT22;45045;45.440;9.178;2022-09-09T03:54:56;24.40;99.90
32400;DHT22;45045;45.440;9.178;2022-09-09T03:57:22;24.80;99.90
32400;DHT22;45045;45.440;9.178;2022-09-09T03:59:47;24.80;99.90
32400;DHT22;45045;45.440;9.178;2022-09-09T04:02:13;25.20;99.90
32400;DHT22;45045;45.440;9.178;2022-09-09T04:04:39;25.10;99.90
32400;DHT22;45045;45.440;9.178;2022-09-09T04:07:05;25.50;99.90
32400;DHT22;45045;45.440;9.178;2022-09-09T04:09:32;25.30;99.90
32400;DHT22;45045;45.440;9.178;2022-09-09T04:11:58;25.20;99.90
32400;DHT22;45045;45.440;9.178;2022-09-09T04:14:24;25.10;99.90
32400;DHT22;45045;45.440;9.178;2022-09-09T04:16:54;25.00;99.90
32400;DHT22;45045;45.440;9.178;2022-09-09T04:19:20;25.20;99.90
32400;DHT22;45045;45.440;9.178;2022-09-09T04:21:46;25.00;99.90
32400;DHT22;45045;45.440;9.178;2022-09-09T04:24:15;24.60;99.90
32400;DHT22;45045;45.440;9.178;2022-09-09T04:26:41;24.30;99.90
32400;DHT22;45045;45.440;9.178;2022-09-09T04:29:07;24.30;99.90
32400;DHT22;45045;45.440;9.178;2022-09-09T04:31:33;24.20;99.90
32400;DHT22;45045;45.440;9.178;2022-09-09T04:33:58;24.10;99.90
32400;DHT22;45045;45.440;9.178;2022-09-09T04:36:27;24.00;99.90
32400;DHT22;45045;45.440;9.178;2022-09-09T04:38:53;24.30;99.90
32400;DHT22;45045;45.440;9.178;2022-09-09T04:41:19;24.40;99.90
32400;DHT22;45045;45.440;9.178;2022-09-09T04:43:44;24.40;99.90
32400;DHT22;45045;45.440;9.178;2022-09-09T04:46:10;24.40;99.90
32400;DHT22;45045;45.440;9.178;2022-09-09T04:53:34;24.30;99.90
32400;DHT22;45045;45.440;9.178;2022-09-09T04:58:29;25.10;99.90
32400;DHT22;45045;45.440;9.178;2022-09-09T05:00:54;25.40;99.90
32400;DHT22;45045;45.440;9.178;2022-09-09T05:03:20;25.80;99.90
32400;DHT22;45045;45.440;9.178;2022-09-09T05:05:45;26.00;99.90
32400;DHT22;45045;45.440;9.178;2022-09-09T05:08:11;25.60;99.90
32400;DHT22;45045;45.440;9.178;2022-09-09T05:10:38;25.40;99.90
32400;DHT22;45045;45.440;9.178;2022-09-09T05:13:07;25.50;99.90
32400;DHT22;45045;45.440;9.178;2022-09-09T05:15:32;25.70;99.90
32400;DHT22;45045;45.440;9.178;2022-09-09T05:17:59;26.10;99.10
32400;DHT22;45045;45.440;9.178;2022-09-09T05:20:26;26.40;98.70
32400;DHT22;45045;45.440;9.178;2022-09-09T05:22:55;26.60;97.50
32400;DHT22;45045;45.440;9.178;2022-09-09T05:25:22;26.40;98.30
32400;DHT22;45045;45.440;9.178;2022-09-09T05:27:49;26.20;98.80
32400;DHT22;45045;45.440;9.178;2022-09-09T05:30:15;26.40;98.50
32400;DHT22;45045;45.440;9.178;2022-09-09T05:32:43;26.00;99.80
32400;DHT22;45045;45.440;9.178;2022-09-09T05:35:09;26.20;99.30
32400;DHT22;45045;45.440;9.178;2022-09-09T05:37:35;25.90;99.90
32400;DHT22;45045;45.440;9.178;2022-09-09T05:40:01;26.20;99.40
32400;DHT22;45045;45.440;9.178;2022-09-09T05:42:30;26.20;99.30
32400;DHT22;45045;45.440;9.178;2022-09-09T05:44:56;26.20;99.40
32400;DHT22;45045;45.440;9.178;2022-09-09T05:47:22;26.00;99.70
32400;DHT22;45045;45.440;9.178;2022-09-09T05:49:48;26.00;99.90
32400;DHT22;45045;45.440;9.178;2022-09-09T05:52:14;26.00;99.80
32400;DHT22;45045;45.440;9.178;2022-09-09T05:54:40;25.70;99.90
32400;DHT22;45045;45.440;9.178;2022-09-09T05:57:06;25.50;99.90
32400;DHT22;45045;45.440;9.178;2022-09-09T05:59:32;24.90;99.90
32400;DHT22;45045;45.440;9.178;2022-09-09T06:01:58;24.60;99.90
32400;DHT22;45045;45.440;9.178;2022-09-09T06:04:24;24.50;99.90
32400;DHT22;45045;45.440;9.178;2022-09-09T06:06:50;24.80;99.90
32400;DHT22;45045;45.440;9.178;2022-09-09T06:09:16;24.80;99.90
32400;DHT22;45045;45.440;9.178;2022-09-09T06:11:42;24.80;99.90
32400;DHT22;45045;45.440;9.178;2022-09-09T06:14:08;25.30;99.90
32400;DHT22;45045;45.440;9.178;2022-09-09T06:16:35;25.30;99.90
32400;DHT22;45045;45.440;9.178;2022-09-09T06:19:03;25.00;99.90
32400;DHT22;45045;45.440;9.178;2022-09-09T06:21:33;24.90;99.90
32400;DHT22;45045;45.440;9.178;2022-09-09T06:24:00;25.00;99.90
32400;DHT22;45045;45.440;9.178;2022-09-09T06:26:27;24.90;99.90
32400;DHT22;45045;45.440;9.178;2022-09-09T06:28:54;24.80;99.90
32400;DHT22;45045;45.440;9.178;2022-09-09T06:31:22;24.60;99.90
32400;DHT22;45045;45.440;9.178;2022-09-09T06:33:50;24.80;99.90
32400;DHT22;45045;45.440;9.178;2022-09-09T06:36:19;24.60;99.90
32400;DHT22;45045;45.440;9.178;2022-09-09T06:38:45;24.60;99.90
32400;DHT22;45045;45.440;9.178;2022-09-09T06:41:16;24.80;99.90
32400;DHT22;45045;45.440;9.178;2022-09-09T06:43:42;24.80;99.90
32400;DHT22;45045;45.440;9.178;2022-09-09T06:46:19;24.50;99.90
32400;DHT22;45045;45.440;9.178;2022-09-09T06:48:45;24.30;99.90
32400;DHT22;45045;45.440;9.178;2022-09-09T06:51:17;24.10;99.90
32400;DHT22;45045;45.440;9.178;2022-09-09T06:53:44;24.00;99.90
32400;DHT22;45045;45.440;9.178;2022-09-09T06:58:39;24.20;99.90
32400;DHT22;45045;45.440;9.178;2022-09-09T07:01:08;24.30;99.90
32400;DHT22;45045;45.440;9.178;2022-09-09T07:03:35;24.40;99.90
32400;DHT22;45045;45.440;9.178;2022-09-09T07:06:01;24.40;99.90
32400;DHT22;45045;45.440;9.178;2022-09-09T07:08:29;24.70;99.90
32400;DHT22;45045;45.440;9.178;2022-09-09T07:11:04;25.20;99.90
32400;DHT22;45045;45.440;9.178;2022-09-09T07:13:34;25.50;99.90
32400;DHT22;45045;45.440;9.178;2022-09-09T07:16:10;25.80;99.20
32400;DHT22;45045;45.440;9.178;2022-09-09T07:18:36;25.90;98.00
32400;DHT22;45045;45.440;9.178;2022-09-09T07:21:03;25.70;97.40
32400;DHT22;45045;45.440;9.178;2022-09-09T07:23:30;25.90;97.10
32400;DHT22;45045;45.440;9.178;2022-09-09T07:25:58;26.00;96.40
32400;DHT22;45045;45.440;9.178;2022-09-09T07:28:25;26.10;97.70
32400;DHT22;45045;45.440;9.178;2022-09-09T07:30:59;26.10;96.80
32400;DHT22;45045;45.440;9.178;2022-09-09T07:33:27;26.30;96.70
32400;DHT22;45045;45.440;9.178;2022-09-09T07:36:02;26.40;96.60
32400;DHT22;45045;45.440;9.178;2022-09-09T07:38:29;26.60;94.40
32400;DHT22;45045;45.440;9.178;2022-09-09T07:41:03;26.70;94.70
32400;DHT22;45045;45.440;9.178;2022-09-09T07:43:29;26.80;93.40
32400;DHT22;45045;45.440;9.178;2022-09-09T07:45:58;26.80;93.00
32400;DHT22;45045;45.440;9.178;2022-09-09T07:48:25;26.80;92.50
32400;DHT22;45045;45.440;9.178;2022-09-09T07:50:51;26.40;92.70
32400;DHT22;45045;45.440;9.178;2022-09-09T07:53:17;26.20;93.10
32400;DHT22;45045;45.440;9.178;2022-09-09T07:55:45;26.10;93.50
32400;DHT22;45045;45.440;9.178;2022-09-09T07:58:10;26.40;92.80
32400;DHT22;45045;45.440;9.178;2022-09-09T08:00:36;26.10;91.90
32400;DHT22;45045;45.440;9.178;2022-09-09T08:03:02;26.30;92.50
32400;DHT22;45045;45.440;9.178;2022-09-09T08:05:27;26.60;91.70
32400;DHT22;45045;45.440;9.178;2022-09-09T08:07:53;26.80;91.10
32400;DHT22;45045;45.440;9.178;2022-09-09T08:10:19;26.80;90.80
32400;DHT22;45045;45.440;9.178;2022-09-09T08:12:45;27.00;91.20
32400;DHT22;45045;45.440;9.178;2022-09-09T08:15:10;26.90;90.00
32400;DHT22;45045;45.440;9.178;2022-09-09T08:17:36;26.80;90.20
32400;DHT22;45045;45.440;9.178;2022-09-09T08:20:03;27.00;90.10
32400;DHT22;45045;45.440;9.178;2022-09-09T08:22:32;27.30;89.20
32400;DHT22;45045;45.440;9.178;2022-09-09T08:24:57;27.50;89.90
32400;DHT22;45045;45.440;9.178;2022-09-09T08:27:24;27.40;87.20
32400;DHT22;45045;45.440;9.178;2022-09-09T08:29:53;26.90;88.10
32400;DHT22;45045;45.440;9.178;2022-09-09T08:32:19;27.00;89.40
32400;DHT22;45045;45.440;9.178;2022-09-09T08:34:44;27.30;89.10
32400;DHT22;45045;45.440;9.178;2022-09-09T08:37:10;27.60;86.00
32400;DHT22;45045;45.440;9.178;2022-09-09T08:39:36;27.80;84.90
32400;DHT22;45045;45.440;9.178;2022-09-09T08:42:22;27.90;84.30
32400;DHT22;45045;45.440;9.178;2022-09-09T08:45:24;27.70;84.70
32400;DHT22;45045;45.440;9.178;2022-09-09T08:48:00;27.90;85.30
32400;DHT22;45045;45.440;9.178;2022-09-09T08:50:36;28.20;83.60
32400;DHT22;45045;45.440;9.178;2022-09-09T08:58:23;28.60;81.90
32400;DHT22;45045;45.440;9.178;2022-09-09T09:03:58;28.70;78.30
32400;DHT22;45045;45.440;9.178;2022-09-09T09:06:33;28.70;79.30
32400;DHT22;45045;45.440;9.178;2022-09-09T09:09:17;28.80;77.40
32400;DHT22;45045;45.440;9.178;2022-09-09T09:11:55;28.80;79.10
32400;DHT22;45045;45.440;9.178;2022-09-09T09:14:24;29.00;76.30
32400;DHT22;45045;45.440;9.178;2022-09-09T09:16:57;28.90;73.90
32400;DHT22;45045;45.440;9.178;2022-09-09T09:19:24;28.70;72.80
32400;DHT22;45045;45.440;9.178;2022-09-09T09:29:50;29.10;72.40
32400;DHT22;45045;45.440;9.178;2022-09-09T09:32:19;29.00;70.10
32400;DHT22;45045;45.440;9.178;2022-09-09T09:34:56;28.40;69.30
32400;DHT22;45045;45.440;9.178;2022-09-09T09:37:34;28.40;69.30
32400;DHT22;45045;45.440;9.178;2022-09-09T09:40:16;28.60;69.30
32400;DHT22;45045;45.440;9.178;2022-09-09T09:42:57;28.90;68.10
32400;DHT22;45045;45.440;9.178;2022-09-09T09:48:05;29.40;65.60
32400;DHT22;45045;45.440;9.178;2022-09-09T09:50:32;29.20;65.70
32400;DHT22;45045;45.440;9.178;2022-09-09T09:53:17;28.80;66.00
32400;DHT22;45045;45.440;9.178;2022-09-09T09:55:50;28.80;66.70
32400;DHT22;45045;45.440;9.178;2022-09-09T09:58:18;29.00;66.80
32400;DHT22;45045;45.440;9.178;2022-09-09T10:00:52;29.20;66.20
32400;DHT22;45045;45.440;9.178;2022-09-09T10:03:30;29.30;66.40
32400;DHT22;45045;45.440;9.178;2022-09-09T10:05:56;29.10;66.40
32400;DHT22;45045;45.440;9.178;2022-09-09T10:08:24;29.00;67.10
32400;DHT22;45045;45.440;9.178;2022-09-09T10:19:17;29.20;66.50
32400;DHT22;45045;45.440;9.178;2022-09-09T10:30:04;28.90;68.10
32400;DHT22;45045;45.440;9.178;2022-09-09T10:38:33;28.70;69.20
32400;DHT22;45045;45.440;9.178;2022-09-09T10:43:35;28.50;70.20
32400;DHT22;45045;45.440;9.178;2022-09-09T10:57:31;29.80;67.60
32400;DHT22;45045;45.440;9.178;2022-09-09T11:00:03;29.90;65.50
32400;DHT22;45045;45.440;9.178;2022-09-09T11:02:31;30.00;65.70
32400;DHT22;45045;45.440;9.178;2022-09-09T11:05:18;30.20;64.50
32400;DHT22;45045;45.440;9.178;2022-09-09T11:13:17;30.60;63.20
32400;DHT22;45045;45.440;9.178;2022-09-09T11:15:46;30.40;63.80
32400;DHT22;45045;45.440;9.178;2022-09-09T11:18:19;30.50;63.90
32400;DHT22;45045;45.440;9.178;2022-09-09T11:20:50;30.70;62.00
32400;DHT22;45045;45.440;9.178;2022-09-09T11:23:30;30.60;62.80
32400;DHT22;45045;45.440;9.178;2022-09-09T11:26:00;30.70;62.60
32400;DHT22;45045;45.440;9.178;2022-09-09T11:34:03;30.80;62.60
32400;DHT22;45045;45.440;9.178;2022-09-09T11:42:23;30.70;63.90
32400;DHT22;45045;45.440;9.178;2022-09-09T11:44:49;30.80;63.20
32400;DHT22;45045;45.440;9.178;2022-09-09T11:47:29;30.80;63.70
32400;DHT22;45045;45.440;9.178;2022-09-09T11:50:27;30.90;63.50
32400;DHT22;45045;45.440;9.178;2022-09-09T11:55:39;31.40;62.20
32400;DHT22;45045;45.440;9.178;2022-09-09T12:00:49;31.70;60.50
32400;DHT22;45045;45.440;9.178;2022-09-09T12:03:47;31.40;61.10
32400;DHT22;45045;45.440;9.178;2022-09-09T12:06:19;31.40;61.20
32400;DHT22;45045;45.440;9.178;2022-09-09T12:08:53;31.40;61.60
32400;DHT22;45045;45.440;9.178;2022-09-09T12:11:28;31.40;61.30
32400;DHT22;45045;45.440;9.178;2022-09-09T12:13:59;31.50;62.40
32400;DHT22;45045;45.440;9.178;2022-09-09T12:16:34;31.50;61.20
32400;DHT22;45045;45.440;9.178;2022-09-09T12:19:15;31.40;61.50
32400;DHT22;45045;45.440;9.178;2022-09-09T12:21:44;31.60;61.40
32400;DHT22;45045;45.440;9.178;2022-09-09T12:24:15;31.60;60.40
32400;DHT22;45045;45.440;9.178;2022-09-09T12:27:07;31.70;60.60
32400;DHT22;45045;45.440;9.178;2022-09-09T12:30:04;31.70;60.30
32400;DHT22;45045;45.440;9.178;2022-09-09T12:32:33;31.70;60.80
32400;DHT22;45045;45.440;9.178;2022-09-09T12:35:24;31.80;60.00
32400;DHT22;45045;45.440;9.178;2022-09-09T12:37:57;31.40;59.50
32400;DHT22;45045;45.440;9.178;2022-09-09T12:40:29;31.20;59.70
32400;DHT22;45045;45.440;9.178;2022-09-09T12:42:57;31.20;60.10
32400;DHT22;45045;45.440;9.178;2022-09-09T12:45:26;31.40;59.20
32400;DHT22;45045;45.440;9.178;2022-09-09T12:47:56;31.50;58.50
32400;DHT22;45045;45.440;9.178;2022-09-09T12:50:25;31.30;58.80
32400;DHT22;45045;45.440;9.178;2022-09-09T12:53:03;31.60;59.40
32400;DHT22;45045;45.440;9.178;2022-09-09T12:55:35;31.60;59.10
32400;DHT22;45045;45.440;9.178;2022-09-09T12:58:02;31.80;58.50
32400;DHT22;45045;45.440;9.178;2022-09-09T13:00:33;31.90;58.60
32400;DHT22;45045;45.440;9.178;2022-09-09T13:03:01;32.10;58.20
32400;DHT22;45045;45.440;9.178;2022-09-09T13:05:38;31.80;57.60
32400;DHT22;45045;45.440;9.178;2022-09-09T13:08:11;31.50;57.80
32400;DHT22;45045;45.440;9.178;2022-09-09T13:13:16;31.60;57.70
32400;DHT22;45045;45.440;9.178;2022-09-09T13:16:19;31.70;57.90
32400;DHT22;45045;45.440;9.178;2022-09-09T13:18:45;31.90;57.80
32400;DHT22;45045;45.440;9.178;2022-09-09T13:21:12;32.00;57.50
32400;DHT22;45045;45.440;9.178;2022-09-09T13:23:37;32.00;57.50
32400;DHT22;45045;45.440;9.178;2022-09-09T13:28:47;32.20;55.30
32400;DHT22;45045;45.440;9.178;2022-09-09T13:31:30;32.00;55.40
32400;DHT22;45045;45.440;9.178;2022-09-09T13:33:58;32.00;55.70
32400;DHT22;45045;45.440;9.178;2022-09-09T13:36:33;32.10;56.50
32400;DHT22;45045;45.440;9.178;2022-09-09T13:39:02;32.20;55.60
32400;DHT22;45045;45.440;9.178;2022-09-09T13:41:34;32.20;55.40
32400;DHT22;45045;45.440;9.178;2022-09-09T13:44:02;32.00;55.10
32400;DHT22;45045;45.440;9.178;2022-09-09T13:46:37;31.60;55.80
32400;DHT22;45045;45.440;9.178;2022-09-09T13:49:22;31.70;55.90
32400;DHT22;45045;45.440;9.178;2022-09-09T13:51:50;31.80;56.30
32400;DHT22;45045;45.440;9.178;2022-09-09T13:54:19;31.90;55.70
32400;DHT22;45045;45.440;9.178;2022-09-09T13:56:45;31.90;56.30
32400;DHT22;45045;45.440;9.178;2022-09-09T13:59:16;32.10;56.10
32400;DHT22;45045;45.440;9.178;2022-09-09T14:01:42;32.10;55.70
32400;DHT22;45045;45.440;9.178;2022-09-09T14:04:08;32.00;55.80
32400;DHT22;45045;45.440;9.178;2022-09-09T14:06:37;31.90;55.50
32400;DHT22;45045;45.440;9.178;2022-09-09T14:09:10;31.80;55.90
32400;DHT22;45045;45.440;9.178;2022-09-09T14:11:37;31.70;55.80
32400;DHT22;45045;45.440;9.178;2022-09-09T14:14:03;31.70;56.10
32400;DHT22;45045;45.440;9.178;2022-09-09T14:16:29;31.80;55.20
32400;DHT22;45045;45.440;9.178;2022-09-09T14:18:55;31.90;55.20
32400;DHT22;45045;45.440;9.178;2022-09-09T14:21:25;31.90;55.70
32400;DHT22;45045;45.440;9.178;2022-09-09T14:23:51;32.00;55.20
32400;DHT22;45045;45.440;9.178;2022-09-09T14:26:24;31.90;53.50
32400;DHT22;45045;45.440;9.178;2022-09-09T14:28:50;31.70;55.60
32400;DHT22;45045;45.440;9.178;2022-09-09T14:31:17;31.50;56.60
32400;DHT22;45045;45.440;9.178;2022-09-09T14:33:43;31.20;57.30
32400;DHT22;45045;45.440;9.178;2022-09-09T14:36:09;31.20;58.00
32400;DHT22;45045;45.440;9.178;2022-09-09T14:38:37;31.00;57.10
32400;DHT22;45045;45.440;9.178;2022-09-09T14:41:10;31.00;57.40
32400;DHT22;45045;45.440;9.178;2022-09-09T14:43:39;30.70;57.90
32400;DHT22;45045;45.440;9.178;2022-09-09T14:46:10;30.90;58.00
32400;DHT22;45045;45.440;9.178;2022-09-09T14:48:36;31.10;57.60
32400;DHT22;45045;45.440;9.178;2022-09-09T14:51:10;31.10;57.10
32400;DHT22;45045;45.440;9.178;2022-09-09T14:53:36;31.40;57.20
32400;DHT22;45045;45.440;9.178;2022-09-09T14:58:36;31.50;56.00
32400;DHT22;45045;45.440;9.178;2022-09-09T15:01:06;31.50;57.50
32400;DHT22;45045;45.440;9.178;2022-09-09T15:03:33;31.30;58.20
32400;DHT22;45045;45.440;9.178;2022-09-09T15:06:07;31.40;56.80
32400;DHT22;45045;45.440;9.178;2022-09-09T15:08:35;31.30;56.20
32400;DHT22;45045;45.440;9.178;2022-09-09T15:11:02;31.40;56.10
32400;DHT22;45045;45.440;9.178;2022-09-09T15:13:28;31.30;55.80
32400;DHT22;45045;45.440;9.178;2022-09-09T15:15:54;31.20;55.40
32400;DHT22;45045;45.440;9.178;2022-09-09T15:18:21;31.00;55.80
32400;DHT22;45045;45.440;9.178;2022-09-09T15:20:47;31.10;55.70
32400;DHT22;45045;45.440;9.178;2022-09-09T15:23:13;31.10;55.90
32400;DHT22;45045;45.440;9.178;2022-09-09T15:26:00;31.20;55.70
32400;DHT22;45045;45.440;9.178;2022-09-09T15:28:25;30.90;55.10
32400;DHT22;45045;45.440;9.178;2022-09-09T15:30:52;30.70;55.50
32400;DHT22;45045;45.440;9.178;2022-09-09T15:33:22;30.90;54.60
32400;DHT22;45045;45.440;9.178;2022-09-09T15:35:48;31.10;54.60
32400;DHT22;45045;45.440;9.178;2022-09-09T15:38:15;31.00;54.20
32400;DHT22;45045;45.440;9.178;2022-09-09T15:40:42;30.80;55.00
32400;DHT22;45045;45.440;9.178;2022-09-09T15:43:09;30.60;55.30
32400;DHT22;45045;45.440;9.178;2022-09-09T15:45:36;30.70;55.40
32400;DHT22;45045;45.440;9.178;2022-09-09T15:48:03;30.70;55.00
32400;DHT22;45045;45.440;9.178;2022-09-09T15:50:28;30.80;55.00
32400;DHT22;45045;45.440;9.178;2022-09-09T15:52:57;30.90;53.40
32400;DHT22;45045;45.440;9.178;2022-09-09T15:55:22;30.90;54.30
32400;DHT22;45045;45.440;9.178;2022-09-09T15:57:51;31.10;54.60
32400;DHT22;45045;45.440;9.178;2022-09-09T16:00:20;31.30;53.80
32400;DHT22;45045;45.440;9.178;2022-09-09T16:02:49;31.30;54.50
32400;DHT22;45045;45.440;9.178;2022-09-09T16:05:15;31.40;52.30
32400;DHT22;45045;45.440;9.178;2022-09-09T16:07:41;31.00;52.00
32400;DHT22;45045;45.440;9.178;2022-09-09T16:10:08;30.80;52.40
32400;DHT22;45045;45.440;9.178;2022-09-09T16:12:34;31.10;52.40
32400;DHT22;45045;45.440;9.178;2022-09-09T16:15:00;31.30;51.40
32400;DHT22;45045;45.440;9.178;2022-09-09T16:17:26;31.40;52.90
32400;DHT22;45045;45.440;9.178;2022-09-09T16:19:53;31.50;50.60
32400;DHT22;45045;45.440;9.178;2022-09-09T16:22:20;31.20;50.50
32400;DHT22;45045;45.440;9.178;2022-09-09T16:24:45;31.20;51.00
32400;DHT22;45045;45.440;9.178;2022-09-09T16:27:11;30.90;51.60
32400;DHT22;45045;45.440;9.178;2022-09-09T16:29:37;30.80;52.20
32400;DHT22;45045;45.440;9.178;2022-09-09T16:32:02;30.70;53.70
32400;DHT22;45045;45.440;9.178;2022-09-09T16:34:28;30.50;55.00
32400;DHT22;45045;45.440;9.178;2022-09-09T16:36:53;30.60;55.30
32400;DHT22;45045;45.440;9.178;2022-09-09T16:39:20;30.40;55.50
32400;DHT22;45045;45.440;9.178;2022-09-09T16:41:47;30.60;55.20
32400;DHT22;45045;45.440;9.178;2022-09-09T16:44:15;30.70;55.30
32400;DHT22;45045;45.440;9.178;2022-09-09T16:46:45;30.50;55.30
32400;DHT22;45045;45.440;9.178;2022-09-09T16:49:14;30.40;55.80
32400;DHT22;45045;45.440;9.178;2022-09-09T16:51:45;30.70;55.20
32400;DHT22;45045;45.440;9.178;2022-09-09T16:54:13;30.60;55.20
32400;DHT22;45045;45.440;9.178;2022-09-09T16:56:41;30.80;54.80
32400;DHT22;45045;45.440;9.178;2022-09-09T16:59:11;30.80;54.50
32400;DHT22;45045;45.440;9.178;2022-09-09T17:01:39;30.40;54.80
32400;DHT22;45045;45.440;9.178;2022-09-09T17:04:08;30.20;54.60
32400;DHT22;45045;45.440;9.178;2022-09-09T17:06:35;30.20;54.80
32400;DHT22;45045;45.440;9.178;2022-09-09T17:09:06;30.20;54.70
32400;DHT22;45045;45.440;9.178;2022-09-09T17:11:33;30.20;54.90
32400;DHT22;45045;45.440;9.178;2022-09-09T17:13:59;30.20;54.70
32400;DHT22;45045;45.440;9.178;2022-09-09T17:16:28;30.10;54.70
32400;DHT22;45045;45.440;9.178;2022-09-09T17:18:55;30.10;54.50
32400;DHT22;45045;45.440;9.178;2022-09-09T17:21:23;30.00;54.60
32400;DHT22;45045;45.440;9.178;2022-09-09T17:23:51;30.10;54.80
32400;DHT22;45045;45.440;9.178;2022-09-09T17:26:19;30.30;54.50
32400;DHT22;45045;45.440;9.178;2022-09-09T17:28:45;30.60;54.40
32400;DHT22;45045;45.440;9.178;2022-09-09T17:31:13;30.70;54.30
32400;DHT22;45045;45.440;9.178;2022-09-09T17:33:41;30.50;54.10
32400;DHT22;45045;45.440;9.178;2022-09-09T17:38:40;30.00;54.50
32400;DHT22;45045;45.440;9.178;2022-09-09T17:41:08;29.90;54.70
32400;DHT22;45045;45.440;9.178;2022-09-09T17:43:35;29.90;55.20
32400;DHT22;45045;45.440;9.178;2022-09-09T17:46:10;29.70;56.70
32400;DHT22;45045;45.440;9.178;2022-09-09T17:48:37;29.60;57.50
32400;DHT22;45045;45.440;9.178;2022-09-09T17:51:07;29.50;58.60
32400;DHT22;45045;45.440;9.178;2022-09-09T17:53:42;29.40;58.60
32400;DHT22;45045;45.440;9.178;2022-09-09T17:56:13;29.30;59.20
32400;DHT22;45045;45.440;9.178;2022-09-09T17:58:39;29.20;60.00
32400;DHT22;45045;45.440;9.178;2022-09-09T18:01:13;29.20;60.60
32400;DHT22;45045;45.440;9.178;2022-09-09T18:03:40;29.30;61.00
32400;DHT22;45045;45.440;9.178;2022-09-09T18:06:10;29.20;61.40
32400;DHT22;45045;45.440;9.178;2022-09-09T18:08:38;29.20;61.80
32400;DHT22;45045;45.440;9.178;2022-09-09T18:11:05;29.00;62.50
32400;DHT22;45045;45.440;9.178;2022-09-09T18:13:31;29.00;62.90
32400;DHT22;45045;45.440;9.178;2022-09-09T18:15:57;29.10;63.20
32400;DHT22;45045;45.440;9.178;2022-09-09T18:18:23;29.00;63.20
32400;DHT22;45045;45.440;9.178;2022-09-09T18:21:00;29.00;63.40